sensor_id;sensor_type;location;lat;lon;timestamp;P1;durP1;ratioP1;P2;durP2;ratioP2
67869;SDS011;54673;52.262;6.830;2022-11-04T00:01:49;2.90;;;1.30;;
67869;SDS011;54673;52.262;6.830;2022-11-04T00:04:16;1.63;;;1.27;;
67869;SDS011;54673;52.262;6.830;2022-11-04T00:06:42;1.70;;;1.30;;
67869;SDS011;54673;52.262;6.830;2022-11-04T00:09:09;1.40;;;1.30;;
67869;SDS011;54673;52.262;6.830;2022-11-04T00:11:37;1.73;;;1.20;;
67869;SDS011;54673;52.262;6.830;2022-11-04T00:14:21;2.00;;;1.20;;
67869;SDS011;54673;52.262;6.830;2022-11-04T00:16:47;2.17;;;1.00;;
67869;SDS011;54673;52.262;6.830;2022-11-04T00:19:31;1.52;;;0.98;;
67869;SDS011;54673;52.262;6.830;2022-11-04T00:22:17;2.63;;;1.10;;
67869;SDS011;54673;52.262;6.830;2022-11-04T00:25:01;2.63;;;1.35;;
67869;SDS011;54673;52.262;6.830;2022-11-04T00:27:45;2.50;;;1.20;;
67869;SDS011;54673;52.262;6.830;2022-11-04T00:30:29;1.30;;;1.00;;
67869;SDS011;54673;52.262;6.830;2022-11-04T00:32:55;1.55;;;1.27;;
67869;SDS011;54673;52.262;6.830;2022-11-04T00:35:39;1.67;;;1.33;;
67869;SDS011;54673;52.262;6.830;2022-11-04T00:38:04;1.40;;;1.10;;
67869;SDS011;54673;52.262;6.830;2022-11-04T00:40:30;1.73;;;1.10;;
67869;SDS011;54673;52.262;6.830;2022-11-04T00:42:56;1.53;;;1.27;;
67869;SDS011;54673;52.262;6.830;2022-11-04T00:45:21;1.40;;;1.03;;
67869;SDS011;54673;52.262;6.830;2022-11-04T00:47:47;1.77;;;1.20;;
67869;SDS011;54673;52.262;6.830;2022-11-04T00:50:12;1.83;;;1.10;;
67869;SDS011;54673;52.262;6.830;2022-11-04T00:52:38;1.73;;;1.00;;
67869;SDS011;54673;52.262;6.830;2022-11-04T00:55:03;1.23;;;0.97;;
67869;SDS011;54673;52.262;6.830;2022-11-04T00:57:29;1.42;;;1.20;;
67869;SDS011;54673;52.262;6.830;2022-11-04T00:59:55;1.87;;;1.20;;
67869;SDS011;54673;52.262;6.830;2022-11-04T01:02:21;2.00;;;1.25;;
67869;SDS011;54673;52.262;6.830;2022-11-04T01:04:47;2.00;;;1.47;;
67869;SDS011;54673;52.262;6.830;2022-11-04T01:07:13;1.60;;;1.13;;
67869;SDS011;54673;52.262;6.830;2022-11-04T01:09:38;1.20;;;1.10;;
67869;SDS011;54673;52.262;6.830;2022-11-04T01:12:04;1.48;;;1.17;;
67869;SDS011;54673;52.262;6.830;2022-11-04T01:14:29;1.57;;;0.90;;
67869;SDS011;54673;52.262;6.830;2022-11-04T01:16:55;1.40;;;1.15;;
67869;SDS011;54673;52.262;6.830;2022-11-04T01:19:21;5.30;;;1.30;;
67869;SDS011;54673;52.262;6.830;2022-11-04T01:21:49;2.25;;;1.20;;
67869;SDS011;54673;52.262;6.830;2022-11-04T01:24:15;1.47;;;1.10;;
67869;SDS011;54673;52.262;6.830;2022-11-04T01:26:40;2.07;;;1.40;;
67869;SDS011;54673;52.262;6.830;2022-11-04T01:29:06;2.90;;;1.30;;
67869;SDS011;54673;52.262;6.830;2022-11-04T01:31:32;2.37;;;1.20;;
67869;SDS011;54673;52.262;6.830;2022-11-04T01:33:57;1.33;;;1.20;;
67869;SDS011;54673;52.262;6.830;2022-11-04T01:36:24;1.80;;;1.20;;
67869;SDS011;54673;52.262;6.830;2022-11-04T01:38:50;1.60;;;1.00;;
67869;SDS011;54673;52.262;6.830;2022-11-04T01:41:23;2.03;;;1.20;;
67869;SDS011;54673;52.262;6.830;2022-11-04T01:46:39;1.30;;;1.20;;
67869;SDS011;54673;52.262;6.830;2022-11-04T01:49:25;1.27;;;1.17;;
67869;SDS011;54673;52.262;6.830;2022-11-04T01:52:05;1.50;;;1.27;;
67869;SDS011;54673;52.262;6.830;2022-11-04T01:54:34;1.48;;;1.33;;
67869;SDS011;54673;52.262;6.830;2022-11-04T01:57:03;2.00;;;1.10;;
67869;SDS011;54673;52.262;6.830;2022-11-04T01:59:34;1.27;;;1.17;;
67869;SDS011;54673;52.262;6.830;2022-11-04T02:02:02;1.55;;;1.20;;
67869;SDS011;54673;52.262;6.830;2022-11-04T02:04:29;1.63;;;1.10;;
67869;SDS011;54673;52.262;6.830;2022-11-04T02:06:56;1.63;;;1.20;;
67869;SDS011;54673;52.262;6.830;2022-11-04T02:09:27;2.63;;;1.40;;
67869;SDS011;54673;52.262;6.830;2022-11-04T02:11:54;1.98;;;1.17;;
67869;SDS011;54673;52.262;6.830;2022-11-04T02:14:38;1.38;;;1.27;;
67869;SDS011;54673;52.262;6.830;2022-11-04T02:25:13;1.70;;;0.90;;
67869;SDS011;54673;52.262;6.830;2022-11-04T02:30:47;1.43;;;1.00;;
67869;SDS011;54673;52.262;6.830;2022-11-04T02:33:27;1.35;;;1.17;;
67869;SDS011;54673;52.262;6.830;2022-11-04T02:36:01;1.20;;;1.10;;
67869;SDS011;54673;52.262;6.830;2022-11-04T02:46:33;1.50;;;1.35;;
67869;SDS011;54673;52.262;6.830;2022-11-04T02:49:06;1.20;;;1.10;;
67869;SDS011;54673;52.262;6.830;2022-11-04T02:54:07;1.35;;;1.10;;
67869;SDS011;54673;52.262;6.830;2022-11-04T02:56:39;1.03;;;0.93;;
67869;SDS011;54673;52.262;6.830;2022-11-04T02:59:19;1.55;;;1.15;;
67869;SDS011;54673;52.262;6.830;2022-11-04T03:01:53;1.30;;;1.10;;
67869;SDS011;54673;52.262;6.830;2022-11-04T03:04:23;1.60;;;1.15;;
67869;SDS011;54673;52.262;6.830;2022-11-04T03:06:55;1.38;;;1.00;;
67869;SDS011;54673;52.262;6.830;2022-11-04T03:09:22;1.53;;;1.00;;
67869;SDS011;54673;52.262;6.830;2022-11-04T03:11:53;1.23;;;1.13;;
67869;SDS011;54673;52.262;6.830;2022-11-04T03:14:26;1.47;;;1.20;;
67869;SDS011;54673;52.262;6.830;2022-11-04T03:17:01;1.00;;;0.90;;
67869;SDS011;54673;52.262;6.830;2022-11-04T03:19:37;1.67;;;1.23;;
67869;SDS011;54673;52.262;6.830;2022-11-04T03:22:21;1.07;;;0.97;;
67869;SDS011;54673;52.262;6.830;2022-11-04T03:24:49;1.88;;;1.05;;
67869;SDS011;54673;52.262;6.830;2022-11-04T03:30:06;1.10;;;1.00;;
67869;SDS011;54673;52.262;6.830;2022-11-04T03:32:50;1.25;;;1.00;;
67869;SDS011;54673;52.262;6.830;2022-11-04T03:35:22;1.10;;;1.00;;
67869;SDS011;54673;52.262;6.830;2022-11-04T03:37:49;1.40;;;1.08;;
67869;SDS011;54673;52.262;6.830;2022-11-04T03:40:14;1.20;;;1.10;;
67869;SDS011;54673;52.262;6.830;2022-11-04T03:42:43;1.95;;;1.13;;
67869;SDS011;54673;52.262;6.830;2022-11-04T03:45:12;1.90;;;1.00;;
67869;SDS011;54673;52.262;6.830;2022-11-04T03:47:39;1.30;;;0.98;;
67869;SDS011;54673;52.262;6.830;2022-11-04T03:50:08;1.40;;;1.02;;
67869;SDS011;54673;52.262;6.830;2022-11-04T03:52:47;1.83;;;1.13;;
67869;SDS011;54673;52.262;6.830;2022-11-04T03:55:13;1.70;;;1.23;;
67869;SDS011;54673;52.262;6.830;2022-11-04T04:00:37;1.48;;;1.10;;
67869;SDS011;54673;52.262;6.830;2022-11-04T04:06:21;1.33;;;1.20;;
67869;SDS011;54673;52.262;6.830;2022-11-04T04:08:57;1.92;;;1.52;;
67869;SDS011;54673;52.262;6.830;2022-11-04T04:11:41;1.60;;;1.50;;
67869;SDS011;54673;52.262;6.830;2022-11-04T04:14:19;2.05;;;1.25;;
67869;SDS011;54673;52.262;6.830;2022-11-04T04:17:27;1.30;;;1.20;;
67869;SDS011;54673;52.262;6.830;2022-11-04T04:19:58;2.70;;;1.77;;
67869;SDS011;54673;52.262;6.830;2022-11-04T04:22:28;1.85;;;1.33;;
67869;SDS011;54673;52.262;6.830;2022-11-04T04:24:59;3.30;;;1.43;;
67869;SDS011;54673;52.262;6.830;2022-11-04T04:27:48;1.60;;;1.27;;
67869;SDS011;54673;52.262;6.830;2022-11-04T04:30:15;2.72;;;1.40;;
67869;SDS011;54673;52.262;6.830;2022-11-04T04:32:45;1.73;;;1.63;;
67869;SDS011;54673;52.262;6.830;2022-11-04T04:35:11;2.20;;;1.63;;
67869;SDS011;54673;52.262;6.830;2022-11-04T04:37:57;2.33;;;1.67;;
67869;SDS011;54673;52.262;6.830;2022-11-04T04:40:46;2.47;;;1.50;;
67869;SDS011;54673;52.262;6.830;2022-11-04T04:43:36;3.63;;;1.60;;
67869;SDS011;54673;52.262;6.830;2022-11-04T04:46:24;1.60;;;1.47;;
67869;SDS011;54673;52.262;6.830;2022-11-04T04:48:50;1.90;;;1.70;;
67869;SDS011;54673;52.262;6.830;2022-11-04T04:51:15;1.90;;;1.70;;
67869;SDS011;54673;52.262;6.830;2022-11-04T04:53:41;1.60;;;1.50;;
67869;SDS011;54673;52.262;6.830;2022-11-04T04:56:07;1.60;;;1.50;;
67869;SDS011;54673;52.262;6.830;2022-11-04T04:58:32;1.93;;;1.67;;
67869;SDS011;54673;52.262;6.830;2022-11-04T05:00:58;2.22;;;1.60;;
67869;SDS011;54673;52.262;6.830;2022-11-04T05:03:23;2.00;;;1.80;;
67869;SDS011;54673;52.262;6.830;2022-11-04T05:05:49;1.60;;;1.33;;
67869;SDS011;54673;52.262;6.830;2022-11-04T05:08:14;2.53;;;1.60;;
67869;SDS011;54673;52.262;6.830;2022-11-04T05:10:40;3.00;;;1.90;;
67869;SDS011;54673;52.262;6.830;2022-11-04T05:13:06;2.87;;;1.70;;
67869;SDS011;54673;52.262;6.830;2022-11-04T05:15:49;3.30;;;1.70;;
67869;SDS011;54673;52.262;6.830;2022-11-04T05:18:15;2.05;;;1.70;;
67869;SDS011;54673;52.262;6.830;2022-11-04T05:20:41;2.20;;;1.97;;
67869;SDS011;54673;52.262;6.830;2022-11-04T05:23:07;1.90;;;1.77;;
67869;SDS011;54673;52.262;6.830;2022-11-04T05:25:36;1.67;;;1.57;;
67869;SDS011;54673;52.262;6.830;2022-11-04T05:28:03;2.10;;;1.90;;
67869;SDS011;54673;52.262;6.830;2022-11-04T05:30:29;2.00;;;1.90;;
67869;SDS011;54673;52.262;6.830;2022-11-04T05:32:55;2.08;;;1.88;;
67869;SDS011;54673;52.262;6.830;2022-11-04T05:35:21;1.88;;;1.70;;
67869;SDS011;54673;52.262;6.830;2022-11-04T05:37:46;1.67;;;1.57;;
67869;SDS011;54673;52.262;6.830;2022-11-04T05:40:12;2.20;;;1.80;;
67869;SDS011;54673;52.262;6.830;2022-11-04T05:42:38;2.08;;;1.80;;
67869;SDS011;54673;52.262;6.830;2022-11-04T05:45:04;1.80;;;1.70;;
67869;SDS011;54673;52.262;6.830;2022-11-04T05:47:30;3.58;;;1.88;;
67869;SDS011;54673;52.262;6.830;2022-11-04T05:49:56;2.27;;;1.93;;
67869;SDS011;54673;52.262;6.830;2022-11-04T05:52:21;1.90;;;1.60;;
67869;SDS011;54673;52.262;6.830;2022-11-04T05:54:47;2.43;;;2.00;;
67869;SDS011;54673;52.262;6.830;2022-11-04T05:57:12;1.98;;;1.77;;
67869;SDS011;54673;52.262;6.830;2022-11-04T05:59:38;1.80;;;1.63;;
67869;SDS011;54673;52.262;6.830;2022-11-04T06:02:04;2.00;;;1.80;;
67869;SDS011;54673;52.262;6.830;2022-11-04T06:04:30;1.80;;;1.70;;
67869;SDS011;54673;52.262;6.830;2022-11-04T06:06:56;2.08;;;1.70;;
67869;SDS011;54673;52.262;6.830;2022-11-04T06:09:21;2.17;;;1.97;;
67869;SDS011;54673;52.262;6.830;2022-11-04T06:12:03;1.88;;;1.58;;
67869;SDS011;54673;52.262;6.830;2022-11-04T06:14:39;1.83;;;1.60;;
67869;SDS011;54673;52.262;6.830;2022-11-04T06:17:05;2.28;;;2.00;;
67869;SDS011;54673;52.262;6.830;2022-11-04T06:19:31;2.30;;;1.77;;
67869;SDS011;54673;52.262;6.830;2022-11-04T06:21:58;2.30;;;1.73;;
67869;SDS011;54673;52.262;6.830;2022-11-04T06:24:24;1.90;;;1.75;;
67869;SDS011;54673;52.262;6.830;2022-11-04T06:26:50;2.33;;;2.13;;
67869;SDS011;54673;52.262;6.830;2022-11-04T06:29:15;2.00;;;1.52;;
67869;SDS011;54673;52.262;6.830;2022-11-04T06:31:41;2.10;;;1.80;;
67869;SDS011;54673;52.262;6.830;2022-11-04T06:34:07;1.92;;;1.70;;
67869;SDS011;54673;52.262;6.830;2022-11-04T06:36:32;2.03;;;1.83;;
67869;SDS011;54673;52.262;6.830;2022-11-04T06:38:58;2.23;;;1.80;;
67869;SDS011;54673;52.262;6.830;2022-11-04T06:41:23;2.15;;;1.60;;
67869;SDS011;54673;52.262;6.830;2022-11-04T06:43:49;1.60;;;1.40;;
67869;SDS011;54673;52.262;6.830;2022-11-04T06:46:29;2.10;;;1.90;;
67869;SDS011;54673;52.262;6.830;2022-11-04T06:48:59;1.97;;;1.77;;
67869;SDS011;54673;52.262;6.830;2022-11-04T06:51:25;2.40;;;2.20;;
67869;SDS011;54673;52.262;6.830;2022-11-04T06:53:50;1.97;;;1.70;;
67869;SDS011;54673;52.262;6.830;2022-11-04T06:56:16;2.33;;;2.10;;
67869;SDS011;54673;52.262;6.830;2022-11-04T06:58:42;2.17;;;1.83;;
67869;SDS011;54673;52.262;6.830;2022-11-04T07:01:08;1.95;;;1.85;;
67869;SDS011;54673;52.262;6.830;2022-11-04T07:03:34;2.30;;;2.10;;
67869;SDS011;54673;52.262;6.830;2022-11-04T07:06:04;2.28;;;2.00;;
67869;SDS011;54673;52.262;6.830;2022-11-04T07:08:30;2.37;;;2.07;;
67869;SDS011;54673;52.262;6.830;2022-11-04T07:10:55;2.00;;;1.80;;
67869;SDS011;54673;52.262;6.830;2022-11-04T07:13:21;1.80;;;1.53;;
67869;SDS011;54673;52.262;6.830;2022-11-04T07:15:47;2.03;;;1.73;;
67869;SDS011;54673;52.262;6.830;2022-11-04T07:18:12;2.47;;;2.15;;
67869;SDS011;54673;52.262;6.830;2022-11-04T07:20:38;4.00;;;1.83;;
67869;SDS011;54673;52.262;6.830;2022-11-04T07:23:04;2.65;;;2.20;;
67869;SDS011;54673;52.262;6.830;2022-11-04T07:25:29;2.40;;;2.20;;
67869;SDS011;54673;52.262;6.830;2022-11-04T07:27:55;2.15;;;1.80;;
67869;SDS011;54673;52.262;6.830;2022-11-04T07:30:20;2.33;;;2.10;;
67869;SDS011;54673;52.262;6.830;2022-11-04T07:32:46;2.30;;;2.10;;
67869;SDS011;54673;52.262;6.830;2022-11-04T07:35:12;4.60;;;2.30;;
67869;SDS011;54673;52.262;6.830;2022-11-04T07:37:38;2.10;;;1.90;;
67869;SDS011;54673;52.262;6.830;2022-11-04T07:40:04;1.97;;;1.80;;
67869;SDS011;54673;52.262;6.830;2022-11-04T07:42:30;2.20;;;2.00;;
67869;SDS011;54673;52.262;6.830;2022-11-04T07:44:56;2.43;;;1.83;;
67869;SDS011;54673;52.262;6.830;2022-11-04T07:47:21;2.17;;;1.97;;
67869;SDS011;54673;52.262;6.830;2022-11-04T07:49:47;2.40;;;2.10;;
67869;SDS011;54673;52.262;6.830;2022-11-04T07:52:12;3.00;;;1.90;;
67869;SDS011;54673;52.262;6.830;2022-11-04T07:54:38;2.60;;;1.83;;
67869;SDS011;54673;52.262;6.830;2022-11-04T07:57:03;1.70;;;1.53;;
67869;SDS011;54673;52.262;6.830;2022-11-04T07:59:29;1.70;;;1.60;;
67869;SDS011;54673;52.262;6.830;2022-11-04T08:01:55;1.80;;;1.60;;
67869;SDS011;54673;52.262;6.830;2022-11-04T08:04:20;2.40;;;1.70;;
67869;SDS011;54673;52.262;6.830;2022-11-04T08:06:46;2.55;;;1.77;;
67869;SDS011;54673;52.262;6.830;2022-11-04T08:09:12;1.83;;;1.67;;
67869;SDS011;54673;52.262;6.830;2022-11-04T08:11:37;2.27;;;1.93;;
67869;SDS011;54673;52.262;6.830;2022-11-04T08:14:03;1.83;;;1.70;;
67869;SDS011;54673;52.262;6.830;2022-11-04T08:16:29;2.40;;;1.77;;
67869;SDS011;54673;52.262;6.830;2022-11-04T08:18:55;2.08;;;1.80;;
67869;SDS011;54673;52.262;6.830;2022-11-04T08:21:25;1.95;;;1.77;;
67869;SDS011;54673;52.262;6.830;2022-11-04T08:23:52;2.07;;;1.60;;
67869;SDS011;54673;52.262;6.830;2022-11-04T08:26:19;2.83;;;1.95;;
67869;SDS011;54673;52.262;6.830;2022-11-04T08:28:47;2.40;;;1.87;;
67869;SDS011;54673;52.262;6.830;2022-11-04T08:31:21;2.83;;;1.70;;
67869;SDS011;54673;52.262;6.830;2022-11-04T08:33:49;3.30;;;1.83;;
67869;SDS011;54673;52.262;6.830;2022-11-04T08:36:17;2.33;;;1.70;;
67869;SDS011;54673;52.262;6.830;2022-11-04T08:38:46;2.25;;;1.67;;
67869;SDS011;54673;52.262;6.830;2022-11-04T08:41:13;2.10;;;1.90;;
67869;SDS011;54673;52.262;6.830;2022-11-04T08:43:39;2.78;;;1.70;;
67869;SDS011;54673;52.262;6.830;2022-11-04T08:46:06;2.03;;;1.60;;
67869;SDS011;54673;52.262;6.830;2022-11-04T08:48:34;2.33;;;1.83;;
67869;SDS011;54673;52.262;6.830;2022-11-04T08:51:02;2.03;;;1.70;;
67869;SDS011;54673;52.262;6.830;2022-11-04T08:53:29;1.90;;;1.70;;
67869;SDS011;54673;52.262;6.830;2022-11-04T08:55:55;3.78;;;1.92;;
67869;SDS011;54673;52.262;6.830;2022-11-04T08:58:21;2.33;;;2.13;;
67869;SDS011;54673;52.262;6.830;2022-11-04T09:00:47;3.78;;;1.88;;
67869;SDS011;54673;52.262;6.830;2022-11-04T09:03:13;3.50;;;2.15;;
67869;SDS011;54673;52.262;6.830;2022-11-04T09:05:40;2.50;;;2.20;;
67869;SDS011;54673;52.262;6.830;2022-11-04T09:08:11;2.83;;;2.20;;
67869;SDS011;54673;52.262;6.830;2022-11-04T09:10:46;3.43;;;1.93;;
67869;SDS011;54673;52.262;6.830;2022-11-04T09:13:13;2.78;;;2.50;;
67869;SDS011;54673;52.262;6.830;2022-11-04T09:15:39;2.97;;;2.28;;
67869;SDS011;54673;52.262;6.830;2022-11-04T09:18:06;2.37;;;2.17;;
67869;SDS011;54673;52.262;6.830;2022-11-04T09:20:32;2.38;;;2.17;;
67869;SDS011;54673;52.262;6.830;2022-11-04T09:22:58;3.87;;;2.30;;
67869;SDS011;54673;52.262;6.830;2022-11-04T09:25:24;4.70;;;2.40;;
67869;SDS011;54673;52.262;6.830;2022-11-04T09:27:50;5.70;;;2.40;;
67869;SDS011;54673;52.262;6.830;2022-11-04T09:30:15;2.30;;;2.07;;
67869;SDS011;54673;52.262;6.830;2022-11-04T09:32:41;7.40;;;2.15;;
67869;SDS011;54673;52.262;6.830;2022-11-04T09:35:07;3.03;;;2.13;;
67869;SDS011;54673;52.262;6.830;2022-11-04T09:37:33;5.07;;;2.13;;
67869;SDS011;54673;52.262;6.830;2022-11-04T09:39:58;8.03;;;2.37;;
67869;SDS011;54673;52.262;6.830;2022-11-04T09:42:48;3.10;;;2.47;;
67869;SDS011;54673;52.262;6.830;2022-11-04T09:47:51;3.28;;;1.77;;
67869;SDS011;54673;52.262;6.830;2022-11-04T09:50:21;6.90;;;2.10;;
67869;SDS011;54673;52.262;6.830;2022-11-04T09:53:00;3.55;;;1.80;;
67869;SDS011;54673;52.262;6.830;2022-11-04T09:55:40;4.60;;;1.67;;
67869;SDS011;54673;52.262;6.830;2022-11-04T09:58:16;3.70;;;2.03;;
67869;SDS011;54673;52.262;6.830;2022-11-04T10:00:43;3.33;;;1.73;;
67869;SDS011;54673;52.262;6.830;2022-11-04T10:09:47;3.47;;;1.83;;
67869;SDS011;54673;52.262;6.830;2022-11-04T10:12:32;3.53;;;1.90;;
67869;SDS011;54673;52.262;6.830;2022-11-04T10:15:27;2.60;;;1.63;;
67869;SDS011;54673;52.262;6.830;2022-11-04T10:21:01;2.58;;;1.73;;
67869;SDS011;54673;52.262;6.830;2022-11-04T10:23:36;1.90;;;1.48;;
67869;SDS011;54673;52.262;6.830;2022-11-04T10:26:16;1.93;;;1.47;;
67869;SDS011;54673;52.262;6.830;2022-11-04T10:28:54;3.85;;;1.90;;
67869;SDS011;54673;52.262;6.830;2022-11-04T10:31:26;1.90;;;1.50;;
67869;SDS011;54673;52.262;6.830;2022-11-04T10:36:20;3.88;;;1.75;;
67869;SDS011;54673;52.262;6.830;2022-11-04T10:38:50;5.40;;;1.80;;
67869;SDS011;54673;52.262;6.830;2022-11-04T10:44:00;5.37;;;2.20;;
67869;SDS011;54673;52.262;6.830;2022-11-04T10:51:31;3.13;;;1.90;;
67869;SDS011;54673;52.262;6.830;2022-11-04T10:53:56;4.83;;;1.87;;
67869;SDS011;54673;52.262;6.830;2022-11-04T10:56:39;2.97;;;1.67;;
67869;SDS011;54673;52.262;6.830;2022-11-04T11:01:51;3.53;;;1.80;;
67869;SDS011;54673;52.262;6.830;2022-11-04T11:06:55;2.13;;;1.43;;
67869;SDS011;54673;52.262;6.830;2022-11-04T11:09:24;2.40;;;1.50;;
67869;SDS011;54673;52.262;6.830;2022-11-04T11:12:02;3.63;;;1.60;;
67869;SDS011;54673;52.262;6.830;2022-11-04T11:14:41;2.27;;;1.70;;
67869;SDS011;54673;52.262;6.830;2022-11-04T11:20:02;1.83;;;1.63;;
67869;SDS011;54673;52.262;6.830;2022-11-04T11:22:48;5.07;;;2.00;;
67869;SDS011;54673;52.262;6.830;2022-11-04T11:27:51;2.83;;;1.63;;
67869;SDS011;54673;52.262;6.830;2022-11-04T11:30:20;3.70;;;1.42;;
67869;SDS011;54673;52.262;6.830;2022-11-04T11:32:56;3.63;;;1.47;;
67869;SDS011;54673;52.262;6.830;2022-11-04T11:35:26;1.50;;;1.40;;
67869;SDS011;54673;52.262;6.830;2022-11-04T11:37:58;2.08;;;1.30;;
67869;SDS011;54673;52.262;6.830;2022-11-04T11:40:33;2.80;;;1.33;;
67869;SDS011;54673;52.262;6.830;2022-11-04T11:43:02;2.03;;;1.40;;
67869;SDS011;54673;52.262;6.830;2022-11-04T11:45:29;2.00;;;1.33;;
67869;SDS011;54673;52.262;6.830;2022-11-04T11:47:55;4.72;;;1.67;;
67869;SDS011;54673;52.262;6.830;2022-11-04T11:50:25;1.73;;;1.43;;
67869;SDS011;54673;52.262;6.830;2022-11-04T11:53:14;3.40;;;1.20;;
67869;SDS011;54673;52.262;6.830;2022-11-04T11:56:26;2.05;;;1.20;;
67869;SDS011;54673;52.262;6.830;2022-11-04T11:58:41;1.40;;;1.10;;
67869;SDS011;54673;52.262;6.830;2022-11-04T12:01:20;2.08;;;1.17;;
67869;SDS011;54673;52.262;6.830;2022-11-04T12:03:50;1.33;;;1.13;;
67869;SDS011;54673;52.262;6.830;2022-11-04T12:06:25;1.80;;;1.20;;
67869;SDS011;54673;52.262;6.830;2022-11-04T12:09:11;1.95;;;1.20;;
67869;SDS011;54673;52.262;6.830;2022-11-04T12:12:14;2.27;;;1.30;;
67869;SDS011;54673;52.262;6.830;2022-11-04T12:20:40;2.23;;;1.20;;
67869;SDS011;54673;52.262;6.830;2022-11-04T12:23:35;1.85;;;1.30;;
67869;SDS011;54673;52.262;6.830;2022-11-04T12:28:56;1.95;;;1.20;;
67869;SDS011;54673;52.262;6.830;2022-11-04T12:37:08;5.13;;;2.67;;
67869;SDS011;54673;52.262;6.830;2022-11-04T12:40:11;8.00;;;2.97;;
67869;SDS011;54673;52.262;6.830;2022-11-04T12:45:33;4.50;;;2.40;;
67869;SDS011;54673;52.262;6.830;2022-11-04T12:51:06;4.10;;;2.00;;
67869;SDS011;54673;52.262;6.830;2022-11-04T12:56:36;7.88;;;2.90;;
67869;SDS011;54673;52.262;6.830;2022-11-04T12:59:08;3.80;;;1.90;;
67869;SDS011;54673;52.262;6.830;2022-11-04T13:01:37;4.40;;;2.00;;
67869;SDS011;54673;52.262;6.830;2022-11-04T13:04:20;3.10;;;2.15;;
67869;SDS011;54673;52.262;6.830;2022-11-04T13:06:57;2.67;;;1.63;;
67869;SDS011;54673;52.262;6.830;2022-11-04T13:11:54;3.60;;;1.97;;
67869;SDS011;54673;52.262;6.830;2022-11-04T13:14:28;2.22;;;1.80;;
67869;SDS011;54673;52.262;6.830;2022-11-04T13:17:02;5.20;;;2.30;;
67869;SDS011;54673;52.262;6.830;2022-11-04T13:19:33;7.63;;;2.22;;
67869;SDS011;54673;52.262;6.830;2022-11-04T13:22:33;11.18;;;1.70;;
67869;SDS011;54673;52.262;6.830;2022-11-04T13:25:23;4.77;;;1.50;;
67869;SDS011;54673;52.262;6.830;2022-11-04T13:27:54;8.00;;;1.90;;
67869;SDS011;54673;52.262;6.830;2022-11-04T13:33:37;5.60;;;1.88;;
67869;SDS011;54673;52.262;6.830;2022-11-04T13:36:31;3.15;;;1.58;;
67869;SDS011;54673;52.262;6.830;2022-11-04T13:39:21;4.47;;;1.70;;
67869;SDS011;54673;52.262;6.830;2022-11-04T13:42:05;6.90;;;1.75;;
67869;SDS011;54673;52.262;6.830;2022-11-04T13:45:02;6.63;;;1.73;;
67869;SDS011;54673;52.262;6.830;2022-11-04T13:47:49;4.53;;;1.75;;
67869;SDS011;54673;52.262;6.830;2022-11-04T13:50:32;4.80;;;1.90;;
67869;SDS011;54673;52.262;6.830;2022-11-04T13:53:03;7.20;;;1.77;;
67869;SDS011;54673;52.262;6.830;2022-11-04T13:55:31;3.60;;;1.90;;
67869;SDS011;54673;52.262;6.830;2022-11-04T13:57:59;7.83;;;1.60;;
67869;SDS011;54673;52.262;6.830;2022-11-04T14:00:31;4.53;;;1.40;;
67869;SDS011;54673;52.262;6.830;2022-11-04T14:06:00;2.97;;;1.33;;
67869;SDS011;54673;52.262;6.830;2022-11-04T14:08:28;3.33;;;1.60;;
67869;SDS011;54673;52.262;6.830;2022-11-04T14:15:59;5.72;;;1.55;;
67869;SDS011;54673;52.262;6.830;2022-11-04T14:18:28;2.90;;;1.87;;
67869;SDS011;54673;52.262;6.830;2022-11-04T14:23:32;1.95;;;1.23;;
67869;SDS011;54673;52.262;6.830;2022-11-04T14:26:00;3.10;;;1.40;;
67869;SDS011;54673;52.262;6.830;2022-11-04T14:28:28;2.13;;;1.50;;
67869;SDS011;54673;52.262;6.830;2022-11-04T14:30:56;4.60;;;1.53;;
67869;SDS011;54673;52.262;6.830;2022-11-04T14:38:53;2.40;;;1.40;;
67869;SDS011;54673;52.262;6.830;2022-11-04T14:44:07;1.83;;;1.10;;
67869;SDS011;54673;52.262;6.830;2022-11-04T14:46:41;2.45;;;1.23;;
67869;SDS011;54673;52.262;6.830;2022-11-04T14:49:23;2.90;;;1.30;;
67869;SDS011;54673;52.262;6.830;2022-11-04T14:52:02;2.37;;;1.37;;
67869;SDS011;54673;52.262;6.830;2022-11-04T14:54:29;4.03;;;1.55;;
67869;SDS011;54673;52.262;6.830;2022-11-04T14:57:11;2.60;;;1.33;;
67869;SDS011;54673;52.262;6.830;2022-11-04T14:59:39;2.85;;;1.23;;
67869;SDS011;54673;52.262;6.830;2022-11-04T15:02:09;1.90;;;1.17;;
67869;SDS011;54673;52.262;6.830;2022-11-04T15:05:03;1.80;;;1.43;;
67869;SDS011;54673;52.262;6.830;2022-11-04T15:07:32;1.50;;;1.20;;
67869;SDS011;54673;52.262;6.830;2022-11-04T15:10:13;2.63;;;1.30;;
67869;SDS011;54673;52.262;6.830;2022-11-04T15:12:48;1.88;;;1.20;;
67869;SDS011;54673;52.262;6.830;2022-11-04T15:15:34;4.50;;;1.30;;
67869;SDS011;54673;52.262;6.830;2022-11-04T15:18:11;1.27;;;0.90;;
67869;SDS011;54673;52.262;6.830;2022-11-04T15:20:45;2.00;;;1.40;;
67869;SDS011;54673;52.262;6.830;2022-11-04T15:23:19;2.00;;;1.30;;
67869;SDS011;54673;52.262;6.830;2022-11-04T15:25:52;3.97;;;1.20;;
67869;SDS011;54673;52.262;6.830;2022-11-04T15:28:19;1.55;;;1.30;;
67869;SDS011;54673;52.262;6.830;2022-11-04T15:31:02;1.33;;;1.20;;
67869;SDS011;54673;52.262;6.830;2022-11-04T15:33:28;2.00;;;1.23;;
67869;SDS011;54673;52.262;6.830;2022-11-04T15:35:56;2.83;;;1.20;;
67869;SDS011;54673;52.262;6.830;2022-11-04T15:38:23;1.77;;;1.30;;
67869;SDS011;54673;52.262;6.830;2022-11-04T15:40:52;2.50;;;1.25;;
67869;SDS011;54673;52.262;6.830;2022-11-04T15:43:18;1.13;;;0.93;;
67869;SDS011;54673;52.262;6.830;2022-11-04T15:48:29;2.20;;;1.50;;
67869;SDS011;54673;52.262;6.830;2022-11-04T15:53:55;1.53;;;1.10;;
67869;SDS011;54673;52.262;6.830;2022-11-04T15:56:28;2.28;;;1.40;;
67869;SDS011;54673;52.262;6.830;2022-11-04T15:58:57;2.42;;;1.30;;
67869;SDS011;54673;52.262;6.830;2022-11-04T16:01:24;1.50;;;1.10;;
67869;SDS011;54673;52.262;6.830;2022-11-04T16:03:53;1.98;;;1.20;;
67869;SDS011;54673;52.262;6.830;2022-11-04T16:06:31;1.75;;;0.95;;
67869;SDS011;54673;52.262;6.830;2022-11-04T16:09:00;2.27;;;1.00;;
67869;SDS011;54673;52.262;6.830;2022-11-04T16:11:27;1.73;;;1.00;;
67869;SDS011;54673;52.262;6.830;2022-11-04T16:13:57;2.03;;;1.20;;
67869;SDS011;54673;52.262;6.830;2022-11-04T16:16:46;2.00;;;1.02;;
67869;SDS011;54673;52.262;6.830;2022-11-04T16:19:18;1.43;;;1.17;;
67869;SDS011;54673;52.262;6.830;2022-11-04T16:21:45;2.20;;;1.10;;
67869;SDS011;54673;52.262;6.830;2022-11-04T16:24:22;3.13;;;1.10;;
67869;SDS011;54673;52.262;6.830;2022-11-04T16:26:49;2.97;;;1.30;;
67869;SDS011;54673;52.262;6.830;2022-11-04T16:29:25;1.40;;;1.10;;
67869;SDS011;54673;52.262;6.830;2022-11-04T16:34:32;1.42;;;1.00;;
67869;SDS011;54673;52.262;6.830;2022-11-04T16:36:58;2.05;;;0.90;;
67869;SDS011;54673;52.262;6.830;2022-11-04T16:39:23;7.70;;;1.30;;
67869;SDS011;54673;52.262;6.830;2022-11-04T16:41:49;1.30;;;1.03;;
67869;SDS011;54673;52.262;6.830;2022-11-04T16:44:18;1.50;;;1.10;;
67869;SDS011;54673;52.262;6.830;2022-11-04T16:46:46;1.20;;;1.00;;
67869;SDS011;54673;52.262;6.830;2022-11-04T16:49:13;1.80;;;1.10;;
67869;SDS011;54673;52.262;6.830;2022-11-04T16:51:40;1.77;;;1.20;;
67869;SDS011;54673;52.262;6.830;2022-11-04T16:54:05;1.83;;;0.90;;
67869;SDS011;54673;52.262;6.830;2022-11-04T16:56:31;1.92;;;1.00;;
67869;SDS011;54673;52.262;6.830;2022-11-04T16:58:57;1.53;;;1.10;;
67869;SDS011;54673;52.262;6.830;2022-11-04T17:01:23;1.42;;;1.13;;
67869;SDS011;54673;52.262;6.830;2022-11-04T17:03:48;3.90;;;1.53;;
67869;SDS011;54673;52.262;6.830;2022-11-04T17:06:14;3.85;;;1.40;;
67869;SDS011;54673;52.262;6.830;2022-11-04T17:08:41;1.70;;;1.30;;
67869;SDS011;54673;52.262;6.830;2022-11-04T17:11:07;2.13;;;1.55;;
67869;SDS011;54673;52.262;6.830;2022-11-04T17:13:34;2.30;;;1.50;;